createdAt,value
2022-07-31T00:00:25.565Z,5.20
2022-07-31T00:02:55.462Z,4.57
2022-07-31T00:05:24.012Z,3.13
2022-07-31T00:07:52.335Z,7.43
2022-07-31T00:10:20.690Z,6.15
2022-07-31T00:12:49.573Z,5.47
2022-07-31T00:15:18.436Z,3.40
2022-07-31T00:17:47.150Z,2.78
2022-07-31T00:20:18.088Z,3.45
2022-07-31T00:22:47.204Z,4.70
2022-07-31T00:25:16.506Z,3.47
2022-07-31T00:27:44.953Z,4.15
2022-07-31T00:30:14.340Z,3.53
2022-07-31T00:32:42.777Z,5.25
2022-07-31T00:35:12.294Z,7.43
2022-07-31T00:37:43.161Z,3.67
2022-07-31T00:40:13.205Z,7.47
2022-07-31T00:42:41.557Z,7.47
2022-07-31T00:45:10.220Z,2.95
2022-07-31T00:47:41.918Z,3.45
2022-07-31T00:50:10.737Z,4.10
2022-07-31T00:52:39.094Z,5.88
2022-07-31T00:55:09.815Z,6.50
2022-07-31T00:57:38.406Z,7.43
2022-07-31T01:00:07.502Z,6.05
2022-07-31T01:02:35.833Z,3.25
2022-07-31T01:05:04.265Z,6.30
2022-07-31T01:07:32.608Z,4.40
2022-07-31T01:10:02.157Z,3.92
2022-07-31T01:12:35.511Z,5.15
2022-07-31T01:15:07.209Z,5.97
2022-07-31T01:17:36.296Z,3.45
2022-07-31T01:20:05.788Z,6.65
2022-07-31T01:22:46.789Z,4.82
2022-07-31T01:25:18.685Z,4.60
2022-07-31T01:27:58.607Z,3.42
2022-07-31T01:30:31.090Z,5.20
2022-07-31T01:33:00.548Z,4.07
2022-07-31T01:35:30.140Z,3.17
2022-07-31T01:37:59.489Z,2.88
2022-07-31T01:40:29.451Z,6.85
2022-07-31T01:43:00.315Z,2.55
2022-07-31T01:45:31.001Z,3.72
2022-07-31T01:47:59.316Z,2.20
2022-07-31T01:50:43.530Z,2.78
2022-07-31T01:53:14.651Z,2.78
2022-07-31T01:56:03.858Z,2.72
2022-07-31T01:58:35.019Z,4.97
2022-07-31T02:01:05.442Z,4.80
2022-07-31T02:03:43.787Z,3.22
2022-07-31T02:06:14.972Z,2.45
2022-07-31T02:08:43.805Z,5.45
2022-07-31T02:11:13.981Z,4.13
2022-07-31T02:13:42.401Z,6.00
2022-07-31T02:16:12.665Z,3.72
2022-07-31T02:18:41.414Z,3.10
2022-07-31T02:21:09.735Z,2.90
2022-07-31T02:23:38.736Z,3.40
2022-07-31T02:26:07.661Z,2.85
2022-07-31T02:28:37.997Z,3.45
2022-07-31T02:31:08.257Z,3.60
2022-07-31T02:33:39.110Z,3.50
2022-07-31T02:36:08.475Z,4.10
2022-07-31T02:38:37.873Z,3.00
2022-07-31T02:41:06.922Z,4.15
2022-07-31T02:43:35.825Z,3.75
2022-07-31T02:46:04.917Z,2.80
2022-07-31T02:48:33.478Z,4.97
2022-07-31T02:51:03.104Z,5.10
2022-07-31T02:53:31.801Z,4.63
2022-07-31T02:56:01.115Z,4.68
2022-07-31T02:58:29.310Z,3.20
2022-07-31T03:01:01.332Z,4.45
2022-07-31T03:03:29.751Z,3.55
2022-07-31T03:05:58.110Z,3.13
2022-07-31T03:08:28.623Z,3.60
2022-07-31T03:10:56.968Z,6.18
2022-07-31T03:13:27.352Z,3.90
2022-07-31T03:15:55.984Z,2.90
2022-07-31T03:18:24.386Z,3.08
2022-07-31T03:20:52.972Z,6.25
2022-07-31T03:23:23.123Z,2.88
2022-07-31T03:25:53.704Z,2.85
2022-07-31T03:28:22.245Z,3.75
2022-07-31T03:30:55.240Z,3.03
2022-07-31T03:33:24.867Z,3.33
2022-07-31T03:35:53.777Z,5.18
2022-07-31T03:38:41.844Z,5.50
2022-07-31T03:41:11.698Z,7.72
2022-07-31T03:43:44.318Z,3.90
2022-07-31T03:46:17.075Z,4.68
2022-07-31T03:48:45.550Z,3.55
2022-07-31T03:51:14.103Z,4.00
2022-07-31T03:53:43.003Z,4.15
2022-07-31T03:56:13.256Z,3.10
2022-07-31T03:58:41.770Z,4.07
2022-07-31T04:01:12.224Z,4.70
2022-07-31T04:03:40.997Z,5.00
2022-07-31T04:06:09.275Z,5.97
2022-07-31T04:08:37.490Z,5.40
2022-07-31T04:11:05.745Z,3.55
2022-07-31T04:13:36.999Z,6.70
2022-07-31T04:16:05.473Z,4.85
2022-07-31T04:18:34.432Z,3.58
2022-07-31T04:21:02.631Z,3.22
2022-07-31T04:23:32.409Z,3.10
2022-07-31T04:26:01.115Z,3.38
2022-07-31T04:28:29.345Z,3.10
2022-07-31T04:30:59.134Z,3.22
2022-07-31T04:33:27.420Z,5.20
2022-07-31T04:35:55.681Z,3.20
2022-07-31T04:38:23.907Z,6.30
2022-07-31T04:40:52.157Z,3.40
2022-07-31T04:43:20.574Z,3.40
2022-07-31T04:45:48.851Z,3.40
2022-07-31T04:48:18.525Z,3.13
2022-07-31T04:50:47.020Z,5.20
2022-07-31T04:53:15.348Z,6.70
2022-07-31T04:56:03.969Z,6.25
2022-07-31T04:58:33.734Z,3.58
2022-07-31T05:01:01.977Z,4.20
2022-07-31T05:03:31.531Z,3.58
2022-07-31T05:06:10.231Z,4.07
2022-07-31T05:08:38.757Z,5.20
2022-07-31T05:11:25.416Z,4.47
2022-07-31T05:13:54.144Z,5.25
2022-07-31T05:16:22.376Z,3.58
2022-07-31T05:18:52.597Z,5.25
2022-07-31T05:21:21.109Z,3.55
2022-07-31T05:23:50.084Z,3.95
2022-07-31T05:26:19.478Z,4.55
2022-07-31T05:28:49.415Z,4.07
2022-07-31T05:31:18.544Z,3.65
2022-07-31T05:33:47.374Z,6.13
2022-07-31T05:36:17.421Z,4.07
2022-07-31T05:38:46.032Z,4.47
2022-07-31T05:41:14.651Z,3.63
2022-07-31T05:43:42.882Z,3.28
2022-07-31T05:46:14.028Z,3.50
2022-07-31T05:48:42.310Z,3.95
2022-07-31T05:51:11.381Z,4.05
2022-07-31T05:53:42.404Z,3.60
2022-07-31T05:56:14.103Z,4.22
2022-07-31T05:58:42.444Z,3.65
2022-07-31T06:01:16.767Z,3.40
2022-07-31T06:03:52.049Z,3.28
2022-07-31T06:06:20.832Z,3.97
2022-07-31T06:08:50.432Z,3.95
2022-07-31T06:11:18.755Z,3.85
2022-07-31T06:13:47.039Z,4.80
2022-07-31T06:16:15.576Z,3.22
2022-07-31T06:18:44.220Z,3.55
2022-07-31T06:23:39.852Z,4.10
2022-07-31T06:26:09.756Z,6.18
2022-07-31T06:28:47.688Z,3.45
2022-07-31T06:31:18.355Z,2.70
2022-07-31T06:33:48.229Z,2.85
2022-07-31T06:36:17.248Z,3.90
2022-07-31T06:38:45.866Z,2.92
2022-07-31T06:41:36.505Z,4.10
2022-07-31T06:44:05.675Z,3.47
2022-07-31T06:46:33.916Z,3.65
2022-07-31T06:49:06.813Z,5.25
2022-07-31T06:51:37.098Z,6.63
2022-07-31T06:54:07.010Z,3.75
2022-07-31T06:56:36.996Z,5.90
2022-07-31T06:59:05.835Z,6.40
2022-07-31T07:01:34.442Z,6.90
2022-07-31T07:04:02.841Z,5.53
2022-07-31T07:06:31.092Z,7.68
2022-07-31T07:08:59.315Z,4.72
2022-07-31T07:11:27.691Z,8.73
2022-07-31T07:13:57.387Z,7.22
2022-07-31T07:16:26.033Z,5.90
2022-07-31T07:18:56.122Z,5.45
2022-07-31T07:21:24.846Z,4.78
2022-07-31T07:23:53.153Z,6.20
2022-07-31T07:26:29.493Z,5.32
2022-07-31T07:28:59.514Z,5.30
2022-07-31T07:31:28.492Z,6.22
2022-07-31T07:33:56.874Z,9.50
2022-07-31T07:36:25.669Z,5.65
2022-07-31T07:38:55.609Z,9.60
2022-07-31T07:41:24.868Z,9.45
2022-07-31T07:43:53.406Z,7.82
2022-07-31T07:46:23.715Z,5.53
2022-07-31T07:48:52.295Z,7.35
2022-07-31T07:51:22.411Z,5.75
2022-07-31T07:53:50.799Z,8.40
2022-07-31T07:56:19.253Z,9.70
2022-07-31T07:58:49.129Z,6.70
2022-07-31T08:01:17.653Z,6.60
2022-07-31T08:03:52.146Z,7.28
2022-07-31T08:06:21.509Z,5.47
2022-07-31T08:08:49.807Z,8.20
2022-07-31T08:11:18.484Z,9.85
2022-07-31T08:13:50.719Z,6.57
2022-07-31T08:16:20.239Z,5.57
2022-07-31T08:18:50.428Z,8.68
2022-07-31T08:21:18.994Z,8.40
2022-07-31T08:23:47.420Z,8.85
2022-07-31T08:26:17.314Z,8.98
2022-07-31T08:28:50.313Z,9.52
2022-07-31T08:31:19.310Z,7.43
2022-07-31T08:33:47.683Z,8.57
2022-07-31T08:36:17.444Z,7.82
2022-07-31T08:38:45.739Z,9.35
2022-07-31T08:41:15.613Z,12.48
2022-07-31T08:44:00.126Z,11.05
2022-07-31T08:46:33.553Z,12.10
2022-07-31T08:49:03.878Z,12.60
2022-07-31T08:51:51.153Z,15.23
2022-07-31T08:54:21.638Z,11.30
2022-07-31T08:56:52.414Z,9.18
2022-07-31T08:59:21.947Z,10.35
2022-07-31T09:01:51.318Z,11.23
2022-07-31T09:04:19.620Z,9.75
2022-07-31T09:06:49.269Z,13.07
2022-07-31T09:09:18.618Z,11.77
2022-07-31T09:11:50.256Z,11.30
2022-07-31T09:14:26.950Z,10.98
2022-07-31T09:16:56.501Z,10.75
2022-07-31T09:19:52.200Z,10.55
2022-07-31T09:22:25.498Z,9.90
2022-07-31T09:24:54.261Z,12.00
2022-07-31T09:27:29.991Z,11.35
2022-07-31T09:29:58.978Z,11.23
2022-07-31T09:32:27.280Z,9.80
2022-07-31T09:34:55.615Z,12.50
2022-07-31T09:37:27.505Z,10.75
2022-07-31T09:39:57.409Z,11.35
2022-07-31T09:42:25.896Z,11.15
2022-07-31T09:44:54.255Z,12.43
2022-07-31T09:47:23.188Z,12.25
2022-07-31T09:49:55.666Z,10.90
2022-07-31T09:52:25.703Z,11.32
2022-07-31T09:55:02.851Z,10.85
2022-07-31T09:57:52.580Z,12.65
2022-07-31T10:00:20.984Z,9.32
2022-07-31T10:02:49.924Z,8.43
2022-07-31T10:05:19.059Z,9.75
2022-07-31T10:07:49.560Z,9.80
2022-07-31T10:10:18.814Z,9.98
2022-07-31T10:12:49.832Z,8.65
2022-07-31T10:15:19.040Z,8.98
2022-07-31T10:17:48.829Z,11.35
2022-07-31T10:20:21.647Z,8.32
2022-07-31T10:22:52.243Z,9.18
2022-07-31T10:25:22.999Z,8.35
2022-07-31T10:27:51.552Z,7.25
2022-07-31T10:30:21.293Z,7.88
2022-07-31T10:32:51.557Z,7.95
2022-07-31T10:35:20.564Z,8.23
2022-07-31T10:37:55.322Z,10.13
2022-07-31T10:40:27.149Z,7.53
2022-07-31T10:43:01.876Z,7.88
2022-07-31T10:45:31.986Z,8.88
2022-07-31T10:48:01.673Z,8.63
2022-07-31T10:50:31.378Z,9.35
2022-07-31T10:53:10.558Z,6.15
2022-07-31T10:55:39.370Z,5.68
2022-07-31T10:58:12.002Z,7.60
2022-07-31T11:00:40.690Z,8.35
2022-07-31T11:03:15.743Z,7.30
2022-07-31T11:06:01.077Z,5.10
2022-07-31T11:08:42.813Z,4.30
2022-07-31T11:11:12.923Z,4.53
2022-07-31T11:13:48.772Z,5.03
2022-07-31T11:16:17.162Z,5.63
2022-07-31T11:18:58.212Z,5.18
2022-07-31T11:21:40.437Z,5.75
2022-07-31T11:24:18.560Z,5.65
2022-07-31T11:26:51.934Z,5.03
2022-07-31T11:30:00.380Z,6.20
2022-07-31T11:32:25.337Z,5.55
2022-07-31T11:34:55.194Z,5.50
2022-07-31T11:37:24.759Z,5.20
2022-07-31T11:39:55.287Z,6.53
2022-07-31T11:42:27.651Z,4.68
2022-07-31T11:45:11.004Z,5.38
2022-07-31T11:48:12.915Z,5.38
2022-07-31T11:50:30.785Z,4.35
2022-07-31T11:53:04.291Z,4.38
2022-07-31T11:55:34.346Z,4.47
2022-07-31T11:58:02.829Z,4.00
2022-07-31T12:00:31.251Z,4.40
2022-07-31T12:02:59.726Z,4.65
2022-07-31T12:05:38.761Z,4.10
2022-07-31T12:08:09.313Z,4.30
2022-07-31T12:10:39.302Z,5.70
2022-07-31T12:13:15.467Z,4.32
2022-07-31T12:15:58.418Z,4.10
2022-07-31T12:18:28.511Z,4.53
2022-07-31T12:20:58.005Z,5.38
2022-07-31T12:23:38.730Z,4.93
2022-07-31T12:26:13.528Z,5.00
2022-07-31T12:28:43.734Z,4.50
2022-07-31T12:31:13.051Z,6.32
2022-07-31T12:33:42.057Z,4.75
2022-07-31T12:36:15.154Z,4.45
2022-07-31T12:38:48.229Z,5.22
2022-07-31T12:41:20.036Z,6.15
2022-07-31T12:43:52.056Z,5.97
2022-07-31T12:46:21.709Z,5.00
2022-07-31T12:49:04.307Z,5.55
2022-07-31T12:51:44.775Z,6.13
2022-07-31T12:54:16.879Z,6.38
2022-07-31T12:56:47.772Z,4.57
2022-07-31T12:59:16.566Z,4.78
2022-07-31T13:01:45.035Z,4.72
2022-07-31T13:04:18.572Z,5.15
2022-07-31T13:06:51.559Z,4.88
2022-07-31T13:09:20.642Z,6.13
2022-07-31T13:11:54.611Z,4.70
2022-07-31T13:14:25.739Z,5.38
2022-07-31T13:16:54.989Z,5.20
2022-07-31T13:19:23.399Z,5.30
2022-07-31T13:21:51.757Z,7.45
2022-07-31T13:24:20.115Z,5.93
2022-07-31T13:26:47.414Z,5.13
2022-07-31T13:29:17.157Z,4.95
2022-07-31T13:31:45.407Z,6.75
2022-07-31T13:34:13.763Z,4.78
2022-07-31T13:36:42.057Z,5.65
2022-07-31T13:39:10.700Z,4.68
2022-07-31T13:41:39.691Z,4.72
2022-07-31T13:44:08.510Z,4.53
2022-07-31T13:46:38.128Z,4.82
2022-07-31T13:49:08.931Z,4.72
2022-07-31T13:51:37.591Z,4.07
2022-07-31T13:54:06.068Z,4.43
2022-07-31T13:56:41.823Z,4.15
2022-07-31T13:59:11.801Z,3.88
2022-07-31T14:02:13.600Z,3.60
2022-07-31T14:04:33.002Z,3.83
2022-07-31T14:07:07.888Z,4.05
2022-07-31T14:09:37.518Z,3.47
2022-07-31T14:12:06.482Z,3.30
2022-07-31T14:14:34.917Z,3.40
2022-07-31T14:17:04.618Z,3.55
2022-07-31T14:19:44.499Z,3.50
2022-07-31T14:22:13.211Z,4.65
2022-07-31T14:24:41.707Z,4.95
2022-07-31T14:27:17.697Z,4.13
2022-07-31T14:29:46.670Z,3.42
2022-07-31T14:32:16.288Z,6.60
2022-07-31T14:34:44.647Z,5.30
2022-07-31T14:37:12.880Z,3.50
2022-07-31T14:39:42.844Z,4.30
2022-07-31T14:42:11.631Z,3.42
2022-07-31T14:44:41.995Z,3.70
2022-07-31T14:47:10.615Z,3.80
2022-07-31T14:50:09.478Z,3.88
2022-07-31T14:52:28.929Z,3.95
2022-07-31T14:54:57.220Z,4.45
2022-07-31T14:57:25.449Z,3.40
2022-07-31T14:59:53.749Z,3.63
2022-07-31T15:02:22.869Z,3.40
2022-07-31T15:04:52.733Z,4.22
2022-07-31T15:07:39.782Z,3.80
2022-07-31T15:10:10.337Z,3.50
2022-07-31T15:12:38.805Z,3.88
2022-07-31T15:15:07.633Z,3.22
2022-07-31T15:17:35.967Z,3.30
2022-07-31T15:20:06.059Z,7.05
2022-07-31T15:22:34.329Z,3.63
2022-07-31T15:25:02.698Z,4.65
2022-07-31T15:27:30.999Z,5.05
2022-07-31T15:30:04.800Z,5.95
2022-07-31T15:32:35.883Z,4.78
2022-07-31T15:35:04.205Z,4.57
2022-07-31T15:37:36.642Z,3.30
2022-07-31T15:40:05.892Z,5.10
2022-07-31T15:42:34.590Z,3.88
2022-07-31T15:45:03.057Z,3.20
2022-07-31T15:47:36.757Z,3.08
2022-07-31T15:50:05.847Z,3.25
2022-07-31T15:52:34.228Z,7.70
2022-07-31T15:55:03.837Z,2.72
2022-07-31T15:57:32.240Z,4.25
2022-07-31T16:00:00.585Z,2.85
2022-07-31T16:02:28.950Z,2.95
2022-07-31T16:05:08.617Z,3.33
2022-07-31T16:08:30.040Z,5.80
2022-07-31T16:10:30.190Z,3.60
2022-07-31T16:12:58.565Z,3.85
2022-07-31T16:15:26.919Z,5.05
2022-07-31T16:17:55.435Z,5.00
2022-07-31T16:20:26.162Z,5.75
2022-07-31T16:22:56.855Z,7.75
2022-07-31T16:25:25.667Z,5.90
2022-07-31T16:27:55.636Z,5.25
2022-07-31T16:30:26.201Z,5.28
2022-07-31T16:32:54.907Z,5.50
2022-07-31T16:35:26.036Z,4.97
2022-07-31T16:37:54.410Z,5.43
2022-07-31T16:40:30.168Z,6.55
2022-07-31T16:43:03.023Z,7.20
2022-07-31T16:45:50.608Z,6.47
2022-07-31T16:48:19.103Z,7.28
2022-07-31T16:50:48.417Z,6.43
2022-07-31T16:54:11.312Z,5.43
2022-07-31T16:56:09.685Z,5.70
2022-07-31T16:58:39.329Z,8.05
2022-07-31T17:01:57.187Z,6.80
2022-07-31T17:04:01.228Z,6.88
2022-07-31T17:06:35.997Z,7.13
2022-07-31T17:09:16.265Z,7.43
2022-07-31T17:11:47.927Z,8.05
2022-07-31T17:14:17.756Z,8.27
2022-07-31T17:16:47.973Z,8.90
2022-07-31T17:19:42.605Z,9.18
2022-07-31T17:22:05.540Z,9.55
2022-07-31T17:24:36.942Z,9.98
2022-07-31T17:27:05.939Z,10.98
2022-07-31T17:29:35.958Z,10.13
2022-07-31T17:32:04.332Z,9.63
2022-07-31T17:34:32.576Z,9.30
2022-07-31T17:37:00.805Z,8.57
2022-07-31T17:39:31.102Z,9.43
2022-07-31T17:41:59.658Z,10.63
2022-07-31T17:44:28.033Z,9.70
2022-07-31T17:46:58.282Z,9.40
2022-07-31T17:49:28.002Z,9.75
2022-07-31T17:51:57.630Z,9.07
2022-07-31T17:54:28.924Z,9.60
2022-07-31T17:56:57.319Z,9.05
2022-07-31T17:59:26.260Z,8.85
2022-07-31T18:01:59.606Z,8.15
2022-07-31T18:04:29.550Z,7.32
2022-07-31T18:06:58.162Z,7.90
2022-07-31T18:09:26.515Z,5.35
2022-07-31T18:11:55.400Z,5.40
2022-07-31T18:14:24.577Z,4.90
2022-07-31T18:16:53.432Z,4.70
2022-07-31T18:19:21.970Z,5.63
2022-07-31T18:21:51.702Z,4.18
2022-07-31T18:24:20.318Z,4.72
2022-07-31T18:26:49.258Z,7.10
2022-07-31T18:29:17.703Z,4.80
2022-07-31T18:31:46.167Z,4.30
2022-07-31T18:34:14.759Z,4.32
2022-07-31T18:36:43.008Z,4.30
2022-07-31T18:39:12.586Z,4.50
2022-07-31T18:41:46.854Z,8.00
2022-07-31T18:44:16.739Z,4.20
2022-07-31T18:46:45.016Z,4.25
2022-07-31T18:50:58.185Z,6.38
2022-07-31T18:52:01.848Z,4.35
2022-07-31T18:54:32.092Z,3.92
2022-07-31T18:57:00.498Z,3.97
2022-07-31T18:59:28.762Z,5.18
2022-07-31T19:01:57.376Z,4.10
2022-07-31T19:04:25.757Z,4.15
2022-07-31T19:06:54.625Z,5.68
2022-07-31T19:09:24.972Z,4.10
2022-07-31T19:12:11.966Z,4.40
2022-07-31T19:15:08.094Z,5.97
2022-07-31T19:17:44.005Z,3.97
2022-07-31T19:20:41.073Z,4.95
2022-07-31T19:23:12.411Z,4.82
2022-07-31T19:25:53.862Z,4.75
2022-07-31T19:28:33.014Z,4.88
2022-07-31T19:31:01.673Z,5.93
2022-07-31T19:33:31.398Z,4.75
2022-07-31T19:36:02.182Z,4.93
2022-07-31T19:38:32.528Z,4.57
2022-07-31T19:41:01.577Z,4.80
2022-07-31T19:43:30.335Z,6.75
2022-07-31T19:46:11.221Z,6.80
2022-07-31T19:48:42.581Z,4.80
2022-07-31T19:51:11.026Z,4.22
2022-07-31T19:53:39.416Z,5.03
2022-07-31T19:56:07.957Z,4.72
2022-07-31T19:58:36.774Z,4.35
2022-07-31T20:01:05.739Z,5.10
2022-07-31T20:03:34.217Z,4.88
2022-07-31T20:06:04.014Z,6.05
2022-07-31T20:08:33.470Z,4.72
2022-07-31T20:11:03.652Z,6.15
2022-07-31T20:13:32.690Z,4.97
2022-07-31T20:16:01.197Z,5.50
2022-07-31T20:18:30.507Z,5.20
2022-07-31T20:21:00.043Z,6.47
2022-07-31T20:23:30.911Z,4.90
2022-07-31T20:25:59.175Z,4.65
2022-07-31T20:28:27.492Z,6.05
2022-07-31T20:30:56.203Z,6.78
2022-07-31T20:33:24.591Z,5.22
2022-07-31T20:35:53.351Z,6.10
2022-07-31T20:38:22.008Z,6.00
2022-07-31T20:40:54.186Z,5.53
2022-07-31T20:43:24.394Z,5.55
2022-07-31T20:45:53.322Z,7.97
2022-07-31T20:48:24.501Z,5.53
2022-07-31T20:50:53.117Z,5.35
2022-07-31T20:53:23.022Z,5.60
2022-07-31T20:55:52.761Z,6.82
2022-07-31T20:58:22.080Z,6.95
2022-07-31T21:00:50.877Z,6.50
2022-07-31T21:03:19.355Z,6.57
2022-07-31T21:05:48.056Z,7.25
2022-07-31T21:08:16.888Z,6.93
2022-07-31T21:10:45.193Z,7.88
2022-07-31T21:13:14.886Z,8.25
2022-07-31T21:15:45.277Z,7.03
2022-07-31T21:18:14.085Z,8.30
2022-07-31T21:20:51.709Z,8.98
2022-07-31T21:23:21.881Z,7.20
2022-07-31T21:25:50.493Z,6.63
2022-07-31T21:28:20.454Z,7.10
2022-07-31T21:30:49.029Z,6.80
2022-07-31T21:33:18.042Z,6.93
2022-07-31T21:35:47.170Z,6.95
2022-07-31T21:38:16.180Z,7.65
2022-07-31T21:40:44.775Z,6.50
2022-07-31T21:43:16.701Z,7.10
2022-07-31T21:45:55.020Z,7.13
2022-07-31T21:48:26.991Z,5.97
2022-07-31T21:50:55.995Z,5.88
2022-07-31T21:53:24.554Z,6.32
2022-07-31T21:55:52.957Z,6.75
2022-07-31T21:58:21.318Z,6.07
2022-07-31T22:00:51.035Z,6.80
2022-07-31T22:03:19.390Z,7.30
2022-07-31T22:06:05.153Z,6.68
2022-07-31T22:08:33.429Z,7.82
2022-07-31T22:11:01.786Z,9.73
2022-07-31T22:13:30.135Z,8.55
2022-07-31T22:16:00.973Z,8.60
2022-07-31T22:18:30.077Z,9.00
2022-07-31T22:20:58.529Z,8.95
2022-07-31T22:23:27.630Z,9.80
2022-07-31T22:25:56.187Z,10.35
2022-07-31T22:28:25.107Z,9.30
2022-07-31T22:30:54.308Z,10.45
2022-07-31T22:33:24.379Z,10.45
2022-07-31T22:35:59.363Z,9.82
2022-07-31T22:38:29.283Z,9.75
2022-07-31T22:40:57.814Z,10.57
2022-07-31T22:44:12.796Z,10.13
2022-07-31T22:46:15.073Z,13.45
2022-07-31T22:48:46.064Z,10.88
2022-07-31T22:51:15.649Z,10.00
2022-07-31T22:53:44.362Z,10.85
2022-07-31T22:56:12.785Z,13.20
2022-07-31T22:58:41.104Z,11.20
2022-07-31T23:01:09.418Z,11.23
2022-07-31T23:03:37.726Z,10.80
2022-07-31T23:06:31.222Z,11.30
2022-07-31T23:08:56.747Z,13.13
2022-07-31T23:11:25.541Z,12.20
2022-07-31T23:13:53.906Z,10.55
2022-07-31T23:16:22.653Z,11.43
2022-07-31T23:18:51.026Z,14.98
2022-07-31T23:21:21.141Z,14.68
2022-07-31T23:23:49.736Z,12.15
2022-07-31T23:26:18.956Z,14.13
2022-07-31T23:28:47.536Z,11.75
2022-07-31T23:31:15.909Z,11.40
2022-07-31T23:33:44.483Z,10.60
2022-07-31T23:36:12.943Z,13.10
2022-07-31T23:38:43.020Z,12.25
2022-07-31T23:41:11.546Z,12.90
2022-07-31T23:43:38.948Z,10.32
2022-07-31T23:46:08.008Z,11.00
2022-07-31T23:48:36.689Z,11.27
2022-07-31T23:51:07.838Z,12.27
2022-07-31T23:53:36.255Z,10.15
2022-07-31T23:56:06.294Z,9.70
2022-07-31T23:58:47.457Z,9.35
